createdAt,value
2022-08-26T00:02:33.785Z,100118.00
2022-08-26T00:05:43.850Z,100117.78
2022-08-26T00:08:51.370Z,100120.56
2022-08-26T00:11:59.088Z,100122.53
2022-08-26T00:15:05.932Z,100111.37
2022-08-26T00:18:21.874Z,100121.84
2022-08-26T00:21:30.332Z,100112.28
2022-08-26T00:24:37.952Z,100112.06
2022-08-26T00:27:45.930Z,100106.69
2022-08-26T00:30:54.672Z,100105.88
2022-08-26T00:34:02.267Z,100104.25
2022-08-26T00:37:13.418Z,100108.00
2022-08-26T00:40:33.418Z,100103.34
2022-08-26T00:43:47.728Z,100097.66
2022-08-26T00:50:25.972Z,100087.19
2022-08-26T00:53:38.972Z,100081.72
2022-08-26T00:57:05.814Z,100076.28
2022-08-26T01:00:33.169Z,100085.56
2022-08-26T01:03:41.014Z,100081.16
2022-08-26T01:06:48.772Z,100074.87
2022-08-26T01:09:57.111Z,100073.91
2022-08-26T01:13:14.010Z,100078.47
2022-08-26T01:16:23.053Z,100078.34
2022-08-26T01:19:44.512Z,100077.19
2022-08-26T01:23:06.216Z,100080.22
2022-08-26T01:26:25.733Z,100079.41
2022-08-26T01:29:33.891Z,100072.88
2022-08-26T01:32:42.251Z,100071.72
2022-08-26T01:35:50.332Z,100075.69
2022-08-26T01:39:02.153Z,100074.28
2022-08-26T01:42:17.872Z,100081.72
2022-08-26T01:45:30.378Z,100077.06
2022-08-26T01:48:43.012Z,100074.63
2022-08-26T01:51:51.752Z,100080.66
2022-08-26T01:55:00.975Z,100076.38
2022-08-26T01:58:12.472Z,100071.22
2022-08-26T02:01:23.123Z,100081.31
2022-08-26T02:08:24.684Z,100070.75
2022-08-26T02:11:36.752Z,100076.09
2022-08-26T02:14:54.113Z,100076.91
2022-08-26T02:18:02.575Z,100069.72
2022-08-26T02:21:13.031Z,100068.31
2022-08-26T02:24:34.611Z,100072.03
2022-08-26T02:27:44.273Z,100067.03
2022-08-26T02:30:54.871Z,100067.50
2022-08-26T02:34:16.193Z,100074.00
2022-08-26T02:37:23.038Z,100069.47
2022-08-26T02:40:39.272Z,100064.13
2022-08-26T02:43:47.410Z,100068.44
2022-08-26T02:47:02.794Z,100063.91
2022-08-26T02:50:10.353Z,100065.41
2022-08-26T02:53:23.175Z,100067.72
2022-08-26T02:56:33.076Z,100065.75
2022-08-26T02:59:42.733Z,100067.59
2022-08-26T03:02:49.769Z,100070.16
2022-08-26T03:05:56.160Z,100065.84
2022-08-26T03:09:02.001Z,100065.84
2022-08-26T03:12:08.229Z,100060.97
2022-08-26T03:15:16.451Z,100061.63
2022-08-26T03:18:24.132Z,100062.91
2022-08-26T03:21:30.916Z,100061.97
2022-08-26T03:24:37.830Z,100061.59
2022-08-26T03:27:43.557Z,100064.84
2022-08-26T03:30:49.871Z,100069.84
2022-08-26T03:33:59.536Z,100069.44
2022-08-26T03:37:05.840Z,100067.25
2022-08-26T03:40:12.910Z,100062.12
2022-08-26T03:43:19.122Z,100064.66
2022-08-26T03:46:25.192Z,100060.38
2022-08-26T03:49:35.141Z,100064.75
2022-08-26T03:52:43.923Z,100063.59
2022-08-26T03:55:51.769Z,100059.75
2022-08-26T03:58:58.049Z,100067.16
2022-08-26T04:02:08.532Z,100071.47
2022-08-26T04:05:33.121Z,100073.75
2022-08-26T04:08:39.630Z,100066.00
2022-08-26T04:11:46.501Z,100069.47
2022-08-26T04:14:57.186Z,100071.22
2022-08-26T04:18:03.760Z,100071.13
2022-08-26T04:21:10.495Z,100069.66
2022-08-26T04:24:19.730Z,100059.91
2022-08-26T04:27:25.895Z,100068.06
2022-08-26T04:30:33.129Z,100069.62
2022-08-26T04:33:41.697Z,100075.66
2022-08-26T04:36:49.633Z,100060.81
2022-08-26T04:39:56.677Z,100064.22
2022-08-26T04:43:02.731Z,100054.25
2022-08-26T04:46:09.789Z,100065.41
2022-08-26T04:49:21.859Z,100066.25
2022-08-26T04:52:27.689Z,100061.37
2022-08-26T04:55:39.808Z,100057.56
2022-08-26T04:59:03.684Z,100056.72
2022-08-26T05:02:13.138Z,100054.88
2022-08-26T05:05:19.148Z,100060.00
2022-08-26T05:08:26.918Z,100053.94
2022-08-26T05:11:33.930Z,100058.56
2022-08-26T05:14:42.175Z,100066.91
2022-08-26T05:17:51.419Z,100054.28
2022-08-26T05:20:57.565Z,100054.81
2022-08-26T05:24:03.885Z,100055.81
2022-08-26T05:27:11.831Z,100041.25
2022-08-26T05:30:19.373Z,100056.31
2022-08-26T05:33:25.710Z,100061.84
2022-08-26T05:36:39.895Z,100056.16
2022-08-26T05:39:48.768Z,100057.72
2022-08-26T05:42:59.317Z,100062.41
2022-08-26T05:46:10.714Z,100063.06
2022-08-26T05:49:18.476Z,100072.62
2022-08-26T05:52:28.103Z,100064.34
2022-08-26T05:55:36.575Z,100065.91
2022-08-26T05:58:49.055Z,100065.00
2022-08-26T06:02:01.569Z,100069.66
2022-08-26T06:05:13.914Z,100066.56
2022-08-26T06:08:21.963Z,100070.38
2022-08-26T06:11:39.079Z,100070.87
2022-08-26T06:14:49.138Z,100073.12
2022-08-26T06:18:00.015Z,100071.41
2022-08-26T06:21:25.057Z,100072.31
2022-08-26T06:24:52.635Z,100067.06
2022-08-26T06:27:59.734Z,100065.09
2022-08-26T06:31:11.521Z,100066.34
2022-08-26T06:34:19.073Z,100069.44
2022-08-26T06:37:26.996Z,100057.94
2022-08-26T06:40:34.864Z,100063.44
2022-08-26T06:43:42.539Z,100064.88
2022-08-26T06:46:50.426Z,100066.59
2022-08-26T06:50:09.575Z,100061.00
2022-08-26T06:53:17.196Z,100069.97
2022-08-26T06:56:27.352Z,100068.19
2022-08-26T06:59:33.056Z,100064.22
2022-08-26T07:02:40.049Z,100065.59
2022-08-26T07:05:55.194Z,100074.53
2022-08-26T07:09:09.782Z,100071.37
2022-08-26T07:12:19.497Z,100069.78
2022-08-26T07:15:31.548Z,100072.25
2022-08-26T07:18:40.394Z,100067.41
2022-08-26T07:21:48.216Z,100067.37
2022-08-26T07:24:57.897Z,100070.13
2022-08-26T07:28:06.234Z,100075.50
2022-08-26T07:31:15.113Z,100062.56
2022-08-26T07:34:26.272Z,100072.22
2022-08-26T07:37:39.343Z,100068.97
2022-08-26T07:40:49.037Z,100063.50
2022-08-26T07:43:57.814Z,100061.84
2022-08-26T07:47:24.047Z,100070.97
2022-08-26T07:50:48.903Z,100066.59
2022-08-26T07:54:01.294Z,100065.41
2022-08-26T07:57:09.439Z,100065.81
2022-08-26T08:00:22.874Z,100066.28
2022-08-26T08:03:31.433Z,100067.63
2022-08-26T08:06:41.597Z,100066.06
2022-08-26T08:09:52.023Z,100063.19
2022-08-26T08:13:01.998Z,100060.31
2022-08-26T08:16:12.626Z,100059.34
2022-08-26T08:19:38.983Z,100055.09
2022-08-26T08:22:48.796Z,100051.63
2022-08-26T08:26:06.578Z,100052.81
2022-08-26T08:29:15.448Z,100047.78
2022-08-26T08:32:22.823Z,100046.97
2022-08-26T08:35:29.450Z,100051.97
2022-08-26T08:38:37.117Z,100053.50
2022-08-26T08:42:16.636Z,100058.78
2022-08-26T08:45:47.075Z,100042.66
2022-08-26T08:49:05.355Z,100040.09
2022-08-26T08:52:42.276Z,100042.56
2022-08-26T08:56:25.838Z,100040.37
2022-08-26T08:59:44.798Z,100045.00
2022-08-26T09:03:09.229Z,100040.13
2022-08-26T09:06:19.620Z,100040.03
2022-08-26T09:09:42.215Z,100041.94
2022-08-26T09:12:51.915Z,100041.06
2022-08-26T09:16:26.967Z,100041.22
2022-08-26T09:19:45.017Z,100041.72
2022-08-26T09:22:53.358Z,100040.03
2022-08-26T09:26:08.254Z,100042.38
2022-08-26T09:32:38.337Z,100039.97
2022-08-26T09:35:49.052Z,100027.22
2022-08-26T09:38:57.392Z,100029.25
2022-08-26T09:42:16.994Z,100032.91
2022-08-26T09:45:50.602Z,100032.22
2022-08-26T09:48:59.993Z,100020.66
2022-08-26T09:52:13.075Z,100017.47
2022-08-26T09:55:24.658Z,100023.47
2022-08-26T09:58:46.855Z,100021.38
2022-08-26T10:01:56.012Z,100020.28
2022-08-26T10:05:09.827Z,100011.44
2022-08-26T10:08:47.681Z,100013.25
2022-08-26T10:11:59.774Z,100009.25
2022-08-26T10:15:15.195Z,100007.47
2022-08-26T10:18:28.788Z,100001.19
2022-08-26T10:21:57.934Z,99995.97
2022-08-26T10:25:13.238Z,99993.28
2022-08-26T10:28:35.736Z,99995.63
2022-08-26T10:31:48.736Z,99993.28
2022-08-26T10:35:06.737Z,99987.03
2022-08-26T10:38:17.934Z,99984.81
2022-08-26T10:41:29.696Z,99983.66
2022-08-26T10:44:41.086Z,99979.25
2022-08-26T10:48:02.907Z,99979.22
2022-08-26T10:51:10.433Z,99977.81
2022-08-26T10:54:34.935Z,99971.88
2022-08-26T10:58:00.175Z,99979.38
2022-08-26T11:01:50.975Z,99973.69
2022-08-26T11:05:17.460Z,99972.19
2022-08-26T11:08:26.114Z,99971.06
2022-08-26T11:11:50.335Z,99964.09
2022-08-26T11:14:58.749Z,99960.91
2022-08-26T11:18:47.999Z,99953.28
2022-08-26T11:22:29.430Z,99946.09
2022-08-26T11:25:59.755Z,99947.44
2022-08-26T11:29:13.401Z,99937.47
2022-08-26T11:32:54.154Z,99935.53
2022-08-26T11:36:12.213Z,99933.75
2022-08-26T11:39:57.218Z,99928.94
2022-08-26T11:43:09.633Z,99923.06
2022-08-26T11:46:29.954Z,99925.53
2022-08-26T11:49:39.634Z,99915.72
2022-08-26T11:53:07.954Z,99917.06
2022-08-26T11:56:35.734Z,99921.28
2022-08-26T11:59:45.075Z,99906.41
2022-08-26T12:02:54.719Z,99902.09
2022-08-26T12:06:06.274Z,99902.91
2022-08-26T12:09:26.811Z,99898.59
2022-08-26T12:12:44.296Z,99892.78
2022-08-26T12:16:05.843Z,99889.25
2022-08-26T12:19:32.741Z,99890.56
2022-08-26T12:22:48.030Z,99884.50
2022-08-26T12:26:25.736Z,99882.03
2022-08-26T12:29:34.276Z,99879.31
2022-08-26T12:32:50.989Z,99880.16
2022-08-26T12:36:10.295Z,99868.09
2022-08-26T12:39:32.874Z,99857.47
2022-08-26T12:42:46.156Z,99855.84
2022-08-26T12:46:06.686Z,99853.94
2022-08-26T12:49:14.191Z,99859.22
2022-08-26T12:52:35.430Z,99845.81
2022-08-26T12:55:50.096Z,99848.78
2022-08-26T12:59:29.514Z,99843.19
2022-08-26T13:02:42.105Z,99836.91
2022-08-26T13:05:50.076Z,99836.00
2022-08-26T13:09:29.629Z,99831.06
2022-08-26T13:12:39.318Z,99834.19
2022-08-26T13:15:46.676Z,99823.34
2022-08-26T13:19:27.300Z,99820.13
2022-08-26T13:22:35.095Z,99816.34
2022-08-26T13:25:47.814Z,99814.44
2022-08-26T13:29:01.800Z,99812.38
2022-08-26T13:32:14.689Z,99809.50
2022-08-26T13:35:23.450Z,99809.41
2022-08-26T13:38:33.697Z,99803.44
2022-08-26T13:41:43.556Z,99801.81
2022-08-26T13:45:01.556Z,99811.72
2022-08-26T13:48:11.649Z,99792.81
2022-08-26T13:51:20.530Z,99794.91
2022-08-26T13:54:31.154Z,99787.63
2022-08-26T13:57:38.536Z,99785.69
2022-08-26T14:00:46.621Z,99794.47
2022-08-26T14:03:54.558Z,99791.84
2022-08-26T14:07:04.257Z,99790.31
2022-08-26T14:10:12.539Z,99787.37
2022-08-26T14:13:20.614Z,99782.97
2022-08-26T14:16:34.711Z,99784.34
2022-08-26T14:19:49.452Z,99779.41
2022-08-26T14:23:13.125Z,99771.78
2022-08-26T14:26:29.243Z,99780.50
2022-08-26T14:29:45.912Z,99786.78
2022-08-26T14:32:58.138Z,99782.31
2022-08-26T14:36:24.063Z,99786.84
2022-08-26T14:39:31.707Z,99786.56
2022-08-26T14:42:38.667Z,99782.97
2022-08-26T14:45:46.341Z,99778.09
2022-08-26T14:48:52.313Z,99794.91
2022-08-26T14:52:03.585Z,99788.81
2022-08-26T14:55:09.846Z,99777.88
2022-08-26T14:58:15.980Z,99775.94
2022-08-26T15:01:22.225Z,99770.22
2022-08-26T15:04:30.188Z,99768.94
2022-08-26T15:07:43.730Z,99771.66
2022-08-26T15:10:54.448Z,99768.81
2022-08-26T15:14:03.589Z,99766.81
2022-08-26T15:17:12.094Z,99757.09
2022-08-26T15:20:19.974Z,99765.56
2022-08-26T15:23:27.830Z,99755.91
2022-08-26T15:26:36.930Z,99759.81
2022-08-26T15:29:46.591Z,99751.44
2022-08-26T15:32:55.449Z,99745.88
2022-08-26T15:36:04.954Z,99741.78
2022-08-26T15:39:12.891Z,99737.62
2022-08-26T15:42:19.011Z,99733.09
2022-08-26T15:45:26.949Z,99729.94
2022-08-26T15:48:35.409Z,99729.97
2022-08-26T15:51:45.859Z,99727.53
2022-08-26T15:54:54.561Z,99724.34
2022-08-26T15:58:04.937Z,99713.53
2022-08-26T16:01:14.141Z,99716.44
2022-08-26T16:04:32.470Z,99714.38
2022-08-26T16:07:40.331Z,99704.94
2022-08-26T16:10:50.913Z,99706.91
2022-08-26T16:13:58.949Z,99704.66
2022-08-26T16:17:07.628Z,99706.44
2022-08-26T16:20:16.569Z,99709.84
2022-08-26T16:23:27.632Z,99704.53
2022-08-26T16:26:38.832Z,99696.91
2022-08-26T16:29:47.955Z,99709.84
2022-08-26T16:32:57.937Z,99704.28
2022-08-26T16:36:05.763Z,99709.09
2022-08-26T16:39:13.790Z,99702.75
2022-08-26T16:42:22.529Z,99702.91
2022-08-26T16:45:33.350Z,99699.53
2022-08-26T16:48:42.269Z,99698.69
2022-08-26T16:51:49.525Z,99700.22
2022-08-26T16:54:55.437Z,99698.84
2022-08-26T16:58:01.470Z,99697.75
2022-08-26T17:01:07.443Z,99691.50
2022-08-26T17:04:14.622Z,99689.28
2022-08-26T17:07:20.575Z,99696.78
2022-08-26T17:10:28.955Z,99691.13
2022-08-26T17:13:36.189Z,99688.94
2022-08-26T17:16:41.977Z,99692.06
2022-08-26T17:19:48.085Z,99691.44
2022-08-26T17:22:56.080Z,99685.75
2022-08-26T17:26:01.925Z,99691.47
2022-08-26T17:29:08.098Z,99695.16
2022-08-26T17:32:13.855Z,99686.91
2022-08-26T17:35:20.114Z,99688.06
2022-08-26T17:38:26.572Z,99698.28
2022-08-26T17:41:33.001Z,99699.41
2022-08-26T17:44:39.686Z,99696.09
2022-08-26T17:47:46.147Z,99693.22
2022-08-26T17:50:52.548Z,99697.91
2022-08-26T17:53:59.063Z,99691.00
2022-08-26T17:57:05.903Z,99695.84
2022-08-26T18:00:21.407Z,99694.19
2022-08-26T18:03:27.227Z,99690.16
2022-08-26T18:06:33.277Z,99699.00
2022-08-26T18:09:39.317Z,99697.03
2022-08-26T18:12:45.863Z,99701.81
2022-08-26T18:15:51.850Z,99707.41
2022-08-26T18:18:57.748Z,99708.09
2022-08-26T18:22:03.707Z,99711.41
2022-08-26T18:25:10.398Z,99709.88
2022-08-26T18:28:16.441Z,99710.28
2022-08-26T18:31:22.419Z,99708.25
2022-08-26T18:34:31.652Z,99704.00
2022-08-26T18:37:38.098Z,99711.91
2022-08-26T18:40:45.833Z,99712.78
2022-08-26T18:43:53.865Z,99716.34
2022-08-26T18:46:59.986Z,99710.47
2022-08-26T18:50:07.929Z,99716.19
2022-08-26T18:53:13.959Z,99715.97
2022-08-26T18:56:20.610Z,99715.78
2022-08-26T18:59:30.358Z,99719.59
2022-08-26T19:02:38.257Z,99730.41
2022-08-26T19:05:45.108Z,99720.22
2022-08-26T19:08:54.471Z,99719.69
2022-08-26T19:12:02.803Z,99729.94
2022-08-26T19:15:09.868Z,99735.09
2022-08-26T19:18:16.715Z,99737.28
2022-08-26T19:21:23.567Z,99735.97
2022-08-26T19:24:29.281Z,99738.69
2022-08-26T19:27:35.635Z,99742.97
2022-08-26T19:30:43.537Z,99741.34
2022-08-26T19:33:49.690Z,99740.28
2022-08-26T19:36:57.599Z,99738.12
2022-08-26T19:40:03.723Z,99737.06
2022-08-26T19:43:09.905Z,99744.63
2022-08-26T19:46:21.441Z,99748.66
2022-08-26T19:52:34.103Z,99746.00
2022-08-26T19:55:40.419Z,99747.88
2022-08-26T19:58:47.515Z,99755.16
2022-08-26T20:02:01.376Z,99751.38
2022-08-26T20:05:24.854Z,99754.34
2022-08-26T20:08:30.841Z,99758.09
2022-08-26T20:11:37.042Z,99758.88
2022-08-26T20:14:43.148Z,99763.19
2022-08-26T20:17:49.381Z,99766.13
2022-08-26T20:21:15.653Z,99766.41
2022-08-26T20:24:22.485Z,99771.50
2022-08-26T20:27:38.134Z,99769.09
2022-08-26T20:30:57.515Z,99771.50
2022-08-26T20:34:03.348Z,99775.00
2022-08-26T20:37:09.603Z,99777.69
2022-08-26T20:40:15.657Z,99780.66
2022-08-26T20:43:21.778Z,99779.03
2022-08-26T20:46:27.893Z,99784.94
2022-08-26T20:49:33.832Z,99785.47
2022-08-26T20:52:40.981Z,99788.44
2022-08-26T20:55:48.331Z,99784.09
2022-08-26T21:02:17.510Z,99784.06
2022-08-26T21:05:23.878Z,99784.56
2022-08-26T21:08:33.264Z,99794.22
2022-08-26T21:11:42.124Z,99792.59
2022-08-26T21:14:49.651Z,99797.69
2022-08-26T21:18:00.725Z,99793.91
2022-08-26T21:21:08.710Z,99792.78
2022-08-26T21:24:15.104Z,99795.72
2022-08-26T21:27:26.359Z,99793.53
2022-08-26T21:30:39.645Z,99802.94
2022-08-26T21:33:46.543Z,99790.84
2022-08-26T21:36:53.481Z,99786.50
2022-08-26T21:40:02.587Z,99785.16
2022-08-26T21:43:08.784Z,99784.06
2022-08-26T21:46:38.157Z,99783.50
2022-08-26T21:49:45.007Z,99782.94
2022-08-26T21:52:51.164Z,99783.16
2022-08-26T21:55:57.786Z,99784.72
2022-08-26T21:59:03.878Z,99781.44
2022-08-26T22:02:10.288Z,99783.28
2022-08-26T22:05:17.118Z,99774.94
2022-08-26T22:08:24.713Z,99772.47
2022-08-26T22:11:34.725Z,99780.25
2022-08-26T22:14:40.746Z,99770.78
2022-08-26T22:17:46.549Z,99780.69
2022-08-26T22:20:53.625Z,99768.03
2022-08-26T22:24:00.291Z,99771.47
2022-08-26T22:27:06.865Z,99775.16
2022-08-26T22:30:13.290Z,99774.06
2022-08-26T22:33:19.461Z,99774.03
2022-08-26T22:36:28.395Z,99773.19
2022-08-26T22:39:35.029Z,99773.37
2022-08-26T22:42:42.615Z,99772.28
2022-08-26T22:46:11.912Z,99764.19
2022-08-26T22:49:18.553Z,99757.69
2022-08-26T22:52:25.703Z,99763.47
2022-08-26T22:55:31.954Z,99757.31
2022-08-26T22:58:38.271Z,99765.56
2022-08-26T23:01:45.057Z,99761.25
2022-08-26T23:04:51.351Z,99756.66
2022-08-26T23:07:58.192Z,99755.00
2022-08-26T23:11:14.191Z,99761.62
2022-08-26T23:14:22.408Z,99759.75
2022-08-26T23:17:29.970Z,99760.25
2022-08-26T23:20:37.057Z,99763.13
2022-08-26T23:23:42.820Z,99750.47
2022-08-26T23:26:50.750Z,99753.88
2022-08-26T23:29:57.437Z,99760.81
2022-08-26T23:33:03.483Z,99754.59
2022-08-26T23:36:13.595Z,99758.25
2022-08-26T23:39:27.111Z,99752.28
2022-08-26T23:42:34.589Z,99753.75
2022-08-26T23:45:42.301Z,99749.06
2022-08-26T23:48:50.873Z,99744.84
2022-08-26T23:52:17.450Z,99751.25
2022-08-26T23:55:24.358Z,99743.16
2022-08-26T23:58:34.490Z,99744.44
